createdAt,value
2018-09-20T00:01:46.468Z,19.69
2018-09-20T00:04:17.270Z,19.66
2018-09-20T00:06:47.960Z,19.70
2018-09-20T00:09:18.641Z,19.61
2018-09-20T00:11:49.333Z,19.80
2018-09-20T00:14:20.130Z,19.70
2018-09-20T00:16:50.782Z,19.66
2018-09-20T00:19:21.449Z,19.61
2018-09-20T00:21:52.094Z,19.57
2018-09-20T00:24:22.773Z,19.58
2018-09-20T00:26:53.428Z,19.59
2018-09-20T00:29:24.036Z,19.52
2018-09-20T00:31:54.689Z,19.60
2018-09-20T00:34:25.337Z,19.64
2018-09-20T00:36:56.060Z,19.60
2018-09-20T00:39:26.705Z,19.60
2018-09-20T00:41:57.367Z,19.57
2018-09-20T00:44:28.036Z,19.65
2018-09-20T00:46:58.710Z,19.66
2018-09-20T00:49:29.408Z,19.60
2018-09-20T00:52:00.061Z,19.55
2018-09-20T00:54:30.736Z,19.59
2018-09-20T00:57:01.509Z,19.60
2018-09-20T00:59:32.269Z,19.60
2018-09-20T01:02:03.177Z,19.72
2018-09-20T01:04:34.064Z,19.79
2018-09-20T01:07:04.781Z,19.68
2018-09-20T01:09:35.479Z,19.61
2018-09-20T01:12:06.220Z,19.59
2018-09-20T01:14:36.939Z,19.52
2018-09-20T01:17:07.690Z,19.53
2018-09-20T01:19:38.436Z,19.60
2018-09-20T01:22:09.105Z,19.62
2018-09-20T01:24:39.847Z,19.57
2018-09-20T01:27:10.595Z,19.52
2018-09-20T01:29:41.326Z,19.58
2018-09-20T01:32:12.320Z,19.48
2018-09-20T01:34:43.005Z,19.53
2018-09-20T01:37:13.731Z,19.40
2018-09-20T01:39:44.476Z,19.39
2018-09-20T01:42:15.147Z,19.32
2018-09-20T01:44:45.816Z,19.32
2018-09-20T01:47:16.695Z,19.23
2018-09-20T01:49:47.342Z,19.31
2018-09-20T01:52:18.065Z,19.17
2018-09-20T01:54:48.776Z,19.18
2018-09-20T01:57:19.752Z,19.20
2018-09-20T01:59:50.444Z,19.21
2018-09-20T02:02:21.166Z,19.16
2018-09-20T02:04:51.874Z,19.10
2018-09-20T02:07:22.588Z,19.17
2018-09-20T02:09:53.233Z,19.08
2018-09-20T02:12:23.928Z,19.14
2018-09-20T02:14:54.618Z,18.98
2018-09-20T02:17:25.303Z,18.99
2018-09-20T02:19:56.030Z,18.99
2018-09-20T02:22:26.696Z,18.92
2018-09-20T02:24:57.411Z,19.05
2018-09-20T02:27:28.081Z,19.03
2018-09-20T02:29:58.803Z,19.04
2018-09-20T02:32:29.495Z,18.94
2018-09-20T02:35:00.224Z,19.03
2018-09-20T02:37:30.982Z,18.92
2018-09-20T02:40:01.630Z,18.96
2018-09-20T02:42:39.107Z,18.84
2018-09-20T02:45:09.838Z,18.89
2018-09-20T02:47:40.550Z,18.92
2018-09-20T02:50:11.228Z,18.91
2018-09-20T02:52:41.988Z,18.88
2018-09-20T02:55:12.659Z,18.89
2018-09-20T02:57:43.380Z,18.83
2018-09-20T03:00:14.090Z,18.88
2018-09-20T03:02:44.782Z,18.87
2018-09-20T03:05:15.550Z,18.84
2018-09-20T03:07:46.236Z,18.79
2018-09-20T03:10:17.013Z,18.80
2018-09-20T03:12:47.606Z,18.72
2018-09-20T03:15:18.308Z,18.74
2018-09-20T03:17:48.975Z,18.74
2018-09-20T03:20:19.743Z,18.71
2018-09-20T03:22:50.420Z,18.72
2018-09-20T03:25:21.216Z,18.70
2018-09-20T03:27:51.809Z,18.65
2018-09-20T03:30:23.109Z,18.69
2018-09-20T03:32:53.766Z,18.68
2018-09-20T03:35:24.486Z,18.63
2018-09-20T03:37:55.183Z,18.60
2018-09-20T03:40:25.839Z,18.64
2018-09-20T03:42:56.625Z,18.62
2018-09-20T03:45:27.366Z,18.63
2018-09-20T03:47:58.057Z,18.65
2018-09-20T03:50:28.740Z,18.59
2018-09-20T03:52:59.478Z,18.64
2018-09-20T03:55:30.204Z,18.63
2018-09-20T03:58:00.921Z,18.56
2018-09-20T04:00:31.589Z,18.61
2018-09-20T04:03:02.299Z,18.53
2018-09-20T04:05:33.110Z,18.51
2018-09-20T04:08:03.783Z,18.54
2018-09-20T04:10:34.467Z,18.52
2018-09-20T04:13:05.162Z,18.57
2018-09-20T04:15:36.051Z,18.53
2018-09-20T04:18:06.889Z,18.57
2018-09-20T04:20:37.720Z,18.48
2018-09-20T04:23:08.532Z,18.56
2018-09-20T04:25:39.248Z,18.53
2018-09-20T04:28:09.938Z,18.52
2018-09-20T04:30:40.585Z,18.54
2018-09-20T04:33:11.346Z,18.55
2018-09-20T04:35:42.040Z,18.53
2018-09-20T04:38:12.738Z,18.46
2018-09-20T04:40:43.476Z,18.47
2018-09-20T04:43:14.230Z,18.47
2018-09-20T04:45:44.864Z,18.46
2018-09-20T04:48:15.479Z,18.51
2018-09-20T04:50:46.136Z,18.43
2018-09-20T04:53:16.927Z,18.37
2018-09-20T04:55:47.548Z,18.50
2018-09-20T04:58:18.371Z,18.54
2018-09-20T05:00:49.013Z,18.53
2018-09-20T05:03:19.836Z,18.51
2018-09-20T05:05:50.644Z,18.48
2018-09-20T05:08:21.400Z,18.52
2018-09-20T05:10:52.022Z,18.43
2018-09-20T05:13:22.730Z,18.47
2018-09-20T05:15:54.605Z,18.51
2018-09-20T05:18:25.299Z,18.46
2018-09-20T05:20:56.020Z,18.43
2018-09-20T05:23:26.902Z,18.47
2018-09-20T05:25:57.571Z,18.45
2018-09-20T05:28:28.301Z,18.51
2018-09-20T05:30:58.932Z,18.48
2018-09-20T05:33:29.724Z,18.50
2018-09-20T05:36:00.819Z,18.43
2018-09-20T05:38:31.546Z,18.39
2018-09-20T05:41:02.323Z,18.52
2018-09-20T05:43:33.024Z,18.39
2018-09-20T05:46:03.994Z,18.48
2018-09-20T05:48:34.620Z,18.50
2018-09-20T05:51:05.409Z,18.66
2018-09-20T05:53:36.139Z,18.55
2018-09-20T05:56:06.961Z,18.66
2018-09-20T05:58:37.677Z,18.61
2018-09-20T06:01:08.329Z,18.68
2018-09-20T06:03:38.977Z,18.66
2018-09-20T06:06:09.609Z,18.70
2018-09-20T06:08:40.328Z,18.74
2018-09-20T06:11:11.073Z,18.77
2018-09-20T06:13:41.787Z,18.85
2018-09-20T06:16:12.614Z,18.91
2018-09-20T06:18:43.305Z,19.00
2018-09-20T06:21:13.988Z,19.11
2018-09-20T06:23:44.713Z,19.09
2018-09-20T06:26:15.578Z,19.15
2018-09-20T06:28:46.327Z,19.08
2018-09-20T06:31:16.984Z,19.17
2018-09-20T06:33:47.660Z,19.17
2018-09-20T06:36:18.324Z,19.16
2018-09-20T06:38:49.045Z,19.27
2018-09-20T06:41:19.705Z,19.45
2018-09-20T06:43:50.421Z,19.61
2018-09-20T06:46:21.100Z,19.84
2018-09-20T06:48:51.756Z,20.04
2018-09-20T06:51:22.399Z,20.14
2018-09-20T06:53:53.291Z,20.33
2018-09-20T06:56:24.051Z,20.39
2018-09-20T06:58:54.776Z,20.54
2018-09-20T07:01:26.411Z,20.76
2018-09-20T07:03:57.140Z,20.91
2018-09-20T07:06:27.784Z,20.95
2018-09-20T07:08:58.451Z,21.10
2018-09-20T07:11:29.113Z,21.26
2018-09-20T07:13:59.775Z,21.29
2018-09-20T07:16:30.509Z,21.58
2018-09-20T07:19:01.644Z,21.56
2018-09-20T07:21:33.860Z,21.84
2018-09-20T07:24:04.498Z,22.14
2018-09-20T07:26:35.205Z,22.24
2018-09-20T07:29:06.088Z,22.40
2018-09-20T07:31:36.778Z,22.42
2018-09-20T07:34:07.503Z,22.60
2018-09-20T07:36:38.203Z,23.03
2018-09-20T07:39:10.307Z,23.10
2018-09-20T07:41:41.059Z,22.99
2018-09-20T07:44:11.715Z,23.05
2018-09-20T07:46:42.478Z,23.21
2018-09-20T07:49:16.070Z,23.21
2018-09-20T07:51:47.253Z,23.48
2018-09-20T07:54:17.979Z,23.75
2018-09-20T07:56:48.705Z,23.92
2018-09-20T07:59:19.530Z,24.02
2018-09-20T08:01:50.263Z,24.18
2018-09-20T08:04:20.909Z,23.86
2018-09-20T08:06:51.597Z,23.51
2018-09-20T08:09:22.231Z,23.89
2018-09-20T08:11:52.972Z,24.25
2018-09-20T08:14:23.624Z,24.69
2018-09-20T08:16:54.311Z,24.95
2018-09-20T08:19:24.995Z,25.40
2018-09-20T08:21:56.127Z,25.36
2018-09-20T08:24:26.870Z,25.27
2018-09-20T08:26:57.498Z,25.31
2018-09-20T08:29:28.145Z,25.05
2018-09-20T08:31:58.847Z,25.10
2018-09-20T08:34:29.550Z,24.66
2018-09-20T08:37:00.282Z,24.57
2018-09-20T08:39:30.928Z,24.76
2018-09-20T08:42:01.599Z,24.99
2018-09-20T08:44:32.180Z,25.13
2018-09-20T08:47:02.911Z,25.29
2018-09-20T08:49:33.674Z,25.47
2018-09-20T08:52:04.467Z,25.47
2018-09-20T08:54:35.275Z,25.36
2018-09-20T08:57:06.049Z,25.51
2018-09-20T08:59:36.798Z,26.10
2018-09-20T09:02:07.516Z,26.30
2018-09-20T09:04:38.286Z,26.05
2018-09-20T09:07:08.867Z,25.91
2018-09-20T09:09:39.591Z,26.00
2018-09-20T09:12:10.288Z,26.04
2018-09-20T09:14:40.945Z,25.70
2018-09-20T09:17:11.596Z,25.63
2018-09-20T09:19:42.262Z,25.49
2018-09-20T09:22:12.928Z,25.81
2018-09-20T09:24:43.561Z,26.37
2018-09-20T09:27:14.312Z,26.52
2018-09-20T09:29:44.998Z,26.35
2018-09-20T09:32:15.609Z,26.74
2018-09-20T09:34:46.271Z,26.48
2018-09-20T09:37:17.401Z,26.66
2018-09-20T09:39:48.064Z,26.68
2018-09-20T09:42:18.746Z,26.67
2018-09-20T09:44:49.377Z,27.10
2018-09-20T09:47:20.032Z,26.55
2018-09-20T09:49:50.739Z,26.69
2018-09-20T09:52:21.423Z,26.65
2018-09-20T09:54:52.160Z,26.74
2018-09-20T09:57:22.866Z,26.93
2018-09-20T09:59:53.599Z,27.06
2018-09-20T10:02:24.535Z,26.96
2018-09-20T10:04:56.172Z,26.50
2018-09-20T10:07:26.872Z,26.19
2018-09-20T10:09:57.504Z,26.28
2018-09-20T10:12:28.179Z,26.53
2018-09-20T10:14:59.488Z,26.06
2018-09-20T10:17:30.190Z,26.08
2018-09-20T10:20:00.866Z,26.18
2018-09-20T10:22:31.463Z,25.87
2018-09-20T10:25:02.224Z,25.93
2018-09-20T10:27:32.895Z,26.07
2018-09-20T10:30:04.360Z,26.30
2018-09-20T10:32:35.140Z,26.43
2018-09-20T10:35:06.322Z,26.24
2018-09-20T10:37:37.068Z,26.11
2018-09-20T10:40:07.888Z,26.35
2018-09-20T10:42:38.583Z,25.77
2018-09-20T10:45:09.260Z,25.73
2018-09-20T10:47:39.887Z,25.84
2018-09-20T10:50:10.801Z,26.05
2018-09-20T10:52:41.512Z,25.74
2018-09-20T10:55:12.301Z,25.88
2018-09-20T10:57:42.922Z,26.06
2018-09-20T11:00:13.594Z,25.95
2018-09-20T11:02:44.232Z,25.88
2018-09-20T11:05:14.986Z,25.55
2018-09-20T11:07:45.635Z,25.33
2018-09-20T11:10:16.347Z,25.08
2018-09-20T11:12:47.013Z,25.24
2018-09-20T11:15:17.676Z,25.50
2018-09-20T11:17:48.645Z,26.07
2018-09-20T11:20:19.301Z,26.53
2018-09-20T11:22:49.987Z,26.59
2018-09-20T11:25:20.573Z,26.66
2018-09-20T11:27:51.209Z,27.04
2018-09-20T11:30:21.960Z,27.62
2018-09-20T11:32:52.637Z,27.18
2018-09-20T11:35:23.331Z,26.68
2018-09-20T11:37:54.007Z,26.61
2018-09-20T11:40:24.733Z,26.64
2018-09-20T11:42:55.444Z,26.58
2018-09-20T11:45:26.179Z,26.66
2018-09-20T11:47:56.875Z,26.57
2018-09-20T11:50:27.601Z,26.77
2018-09-20T11:52:58.271Z,27.01
2018-09-20T11:55:28.917Z,26.77
2018-09-20T11:57:59.628Z,27.22
2018-09-20T12:00:30.379Z,27.37
2018-09-20T12:03:01.024Z,27.72
2018-09-20T12:05:31.768Z,27.89
2018-09-20T12:08:02.506Z,27.92
2018-09-20T12:10:33.398Z,27.91
2018-09-20T12:13:04.184Z,28.01
2018-09-20T12:15:34.878Z,27.71
2018-09-20T12:18:05.657Z,27.54
2018-09-20T12:20:36.340Z,27.67
2018-09-20T12:23:07.101Z,27.48
2018-09-20T12:25:37.790Z,27.89
2018-09-20T12:28:08.564Z,28.09
2018-09-20T12:30:39.203Z,28.25
2018-09-20T12:33:09.920Z,27.97
2018-09-20T12:35:40.733Z,28.30
2018-09-20T12:38:11.385Z,28.29
2018-09-20T12:40:42.013Z,27.88
2018-09-20T12:43:12.709Z,28.01
2018-09-20T12:45:43.327Z,27.63
2018-09-20T12:48:14.005Z,27.89
2018-09-20T12:50:44.762Z,27.58
2018-09-20T12:53:15.451Z,27.62
2018-09-20T12:55:46.163Z,27.92
2018-09-20T12:58:57.583Z,28.18
2018-09-20T13:01:28.513Z,28.34
2018-09-20T13:03:59.154Z,28.60
2018-09-20T13:06:29.820Z,28.84
2018-09-20T13:09:00.622Z,28.94
2018-09-20T13:11:31.379Z,29.00
2018-09-20T13:14:02.094Z,28.90
2018-09-20T13:16:32.783Z,29.09
2018-09-20T13:19:03.695Z,29.47
2018-09-20T13:21:34.501Z,29.44
2018-09-20T13:24:05.221Z,29.13
2018-09-20T13:26:35.837Z,28.58
2018-09-20T13:29:06.595Z,28.53
2018-09-20T13:31:37.298Z,28.66
2018-09-20T13:34:08.003Z,28.88
2018-09-20T13:36:38.756Z,28.75
2018-09-20T13:39:12.056Z,28.76
2018-09-20T13:41:42.809Z,28.82
2018-09-20T13:44:13.461Z,29.13
2018-09-20T13:46:44.171Z,28.82
2018-09-20T13:49:14.803Z,28.85
2018-09-20T13:51:45.495Z,29.03
2018-09-20T13:54:16.100Z,29.22
2018-09-20T13:56:46.784Z,29.32
2018-09-20T13:59:17.564Z,29.33
2018-09-20T14:01:48.317Z,29.25
2018-09-20T14:04:18.992Z,29.06
2018-09-20T14:06:49.702Z,28.94
2018-09-20T14:09:20.439Z,28.67
2018-09-20T14:11:51.106Z,28.75
2018-09-20T14:14:21.774Z,28.65
2018-09-20T14:16:52.439Z,28.64
2018-09-20T14:19:23.245Z,28.58
2018-09-20T14:21:53.928Z,28.68
2018-09-20T14:24:24.573Z,28.46
2018-09-20T14:26:55.279Z,28.68
2018-09-20T14:29:25.920Z,28.86
2018-09-20T14:31:56.633Z,29.21
2018-09-20T14:34:27.303Z,29.32
2018-09-20T14:36:57.969Z,29.24
2018-09-20T14:39:28.839Z,29.04
2018-09-20T14:41:59.520Z,29.19
2018-09-20T14:44:30.233Z,29.02
2018-09-20T14:47:00.932Z,29.01
2018-09-20T14:49:31.589Z,29.04
2018-09-20T14:52:02.272Z,28.92
2018-09-20T14:54:32.946Z,28.98
2018-09-20T14:57:03.649Z,28.99
2018-09-20T14:59:34.358Z,28.94
2018-09-20T15:02:05.115Z,28.88
2018-09-20T15:04:35.771Z,29.11
2018-09-20T15:07:06.523Z,29.21
2018-09-20T15:09:37.127Z,29.20
2018-09-20T15:12:07.901Z,29.18
2018-09-20T15:14:38.657Z,28.99
2018-09-20T15:17:10.170Z,28.94
2018-09-20T15:19:40.805Z,29.22
2018-09-20T15:22:11.468Z,28.95
2018-09-20T15:24:42.324Z,28.76
2018-09-20T15:27:12.835Z,28.68
2018-09-20T15:29:43.483Z,28.64
2018-09-20T15:32:14.128Z,28.56
2018-09-20T15:34:44.771Z,28.43
2018-09-20T15:37:15.416Z,28.51
2018-09-20T15:39:46.071Z,28.48
2018-09-20T15:42:16.767Z,28.51
2018-09-20T15:44:47.565Z,28.34
2018-09-20T15:47:18.398Z,28.12
2018-09-20T15:49:49.231Z,27.98
2018-09-20T15:52:20.112Z,28.00
2018-09-20T15:54:50.815Z,27.99
2018-09-20T15:57:21.435Z,27.97
2018-09-20T15:59:52.097Z,28.06
2018-09-20T16:02:22.753Z,28.04
2018-09-20T16:04:53.388Z,28.04
2018-09-20T16:07:24.047Z,27.93
2018-09-20T16:09:54.772Z,27.68
2018-09-20T16:12:25.621Z,27.78
2018-09-20T16:14:56.332Z,27.60
2018-09-20T16:17:27.000Z,27.46
2018-09-20T16:19:57.984Z,27.42
2018-09-20T16:22:28.689Z,27.42
2018-09-20T16:24:59.351Z,27.30
2018-09-20T16:27:30.101Z,27.34
2018-09-20T16:30:28.296Z,27.26
2018-09-20T16:33:38.681Z,27.07
2018-09-20T16:36:40.208Z,26.91
2018-09-20T16:39:19.321Z,26.89
2018-09-20T16:41:54.461Z,26.89
2018-09-20T16:44:25.093Z,26.91
2018-09-20T16:46:55.783Z,26.93
2018-09-20T16:49:26.376Z,26.72
2018-09-20T16:51:57.064Z,26.63
2018-09-20T16:54:27.744Z,26.46
2018-09-20T16:56:58.446Z,26.48
2018-09-20T16:59:29.148Z,26.35
2018-09-20T17:01:59.847Z,26.18
2018-09-20T17:04:30.503Z,26.11
2018-09-20T17:07:01.188Z,26.03
2018-09-20T17:09:31.888Z,25.94
2018-09-20T17:12:02.560Z,25.89
2018-09-20T17:14:33.254Z,25.81
2018-09-20T17:17:04.059Z,25.69
2018-09-20T17:19:34.781Z,25.58
2018-09-20T17:22:05.449Z,25.47
2018-09-20T17:24:36.090Z,25.38
2018-09-20T17:27:06.916Z,25.27
2018-09-20T17:29:37.614Z,25.14
2018-09-20T17:32:08.283Z,25.12
2018-09-20T17:34:39.460Z,25.01
2018-09-20T17:37:11.815Z,24.91
2018-09-20T17:39:45.162Z,24.74
2018-09-20T17:42:16.842Z,24.68
2018-09-20T17:44:47.579Z,24.67
2018-09-20T17:47:18.353Z,24.60
2018-09-20T17:49:48.986Z,24.65
2018-09-20T17:52:20.362Z,24.54
2018-09-20T17:54:51.825Z,24.43
2018-09-20T17:57:23.411Z,24.23
2018-09-20T17:59:54.101Z,24.25
2018-09-20T18:02:24.733Z,24.09
2018-09-20T18:04:55.413Z,24.03
2018-09-20T18:07:26.067Z,24.08
2018-09-20T18:09:56.755Z,23.90
2018-09-20T18:12:27.511Z,23.86
2018-09-20T18:14:58.200Z,23.68
2018-09-20T18:17:28.899Z,23.57
2018-09-20T18:19:59.557Z,23.56
2018-09-20T18:22:30.326Z,23.45
2018-09-20T18:25:00.972Z,23.34
2018-09-20T18:27:31.655Z,23.32
2018-09-20T18:30:35.597Z,23.22
2018-09-20T18:33:06.323Z,23.33
2018-09-20T18:35:37.207Z,23.30
2018-09-20T18:38:08.082Z,23.26
2018-09-20T18:40:38.764Z,23.22
2018-09-20T18:43:09.399Z,23.33
2018-09-20T18:45:40.051Z,23.30
2018-09-20T18:48:10.711Z,23.36
2018-09-20T18:50:41.396Z,23.42
2018-09-20T18:53:12.025Z,23.32
2018-09-20T18:55:42.689Z,23.19
2018-09-20T18:58:13.348Z,23.13
2018-09-20T19:00:44.023Z,23.33
2018-09-20T19:03:14.810Z,23.34
2018-09-20T19:05:45.562Z,23.26
2018-09-20T19:08:16.223Z,23.27
2018-09-20T19:10:46.942Z,23.37
2018-09-20T19:13:17.622Z,23.43
2018-09-20T19:15:48.301Z,23.41
2018-09-20T19:18:19.041Z,23.27
2018-09-20T19:20:49.737Z,23.25
2018-09-20T19:23:20.458Z,23.18
2018-09-20T19:25:51.155Z,23.18
2018-09-20T19:28:21.882Z,23.27
2018-09-20T19:30:52.568Z,23.24
2018-09-20T19:33:23.214Z,23.22
2018-09-20T19:35:53.890Z,23.19
2018-09-20T19:38:24.552Z,23.11
2018-09-20T19:40:55.244Z,23.11
2018-09-20T19:43:25.864Z,23.07
2018-09-20T19:45:56.565Z,23.18
2018-09-20T19:48:33.865Z,23.11
2018-09-20T19:51:04.518Z,23.04
2018-09-20T19:53:35.236Z,23.01
2018-09-20T19:56:05.893Z,23.08
2018-09-20T19:58:36.552Z,23.04
2018-09-20T20:01:07.625Z,23.04
2018-09-20T20:03:38.258Z,22.94
2018-09-20T20:06:08.924Z,23.08
2018-09-20T20:08:39.665Z,23.00
2018-09-20T20:11:10.373Z,22.95
2018-09-20T20:13:41.033Z,23.00
2018-09-20T20:16:11.753Z,22.94
2018-09-20T20:18:42.815Z,22.93
2018-09-20T20:21:13.496Z,22.88
2018-09-20T20:23:44.174Z,22.87
2018-09-20T20:26:15.338Z,22.87
2018-09-20T20:28:46.109Z,22.93
2018-09-20T20:31:17.428Z,22.87
2018-09-20T20:33:48.264Z,22.80
2018-09-20T20:36:18.928Z,22.92
2018-09-20T20:38:49.579Z,22.85
2018-09-20T20:41:20.315Z,22.87
2018-09-20T20:43:51.024Z,22.79
2018-09-20T20:46:21.767Z,22.88
2018-09-20T20:48:52.482Z,22.84
2018-09-20T20:51:23.185Z,22.90
2018-09-20T20:53:53.824Z,22.74
2018-09-20T20:56:24.476Z,22.76
2018-09-20T20:58:55.245Z,22.63
2018-09-20T21:01:25.818Z,22.67
2018-09-20T21:03:56.487Z,22.69
2018-09-20T21:06:27.164Z,22.69
2018-09-20T21:08:57.955Z,22.75
2018-09-20T21:11:28.536Z,22.61
2018-09-20T21:13:59.747Z,22.69
2018-09-20T21:16:30.400Z,22.68
2018-09-20T21:19:01.065Z,22.60
2018-09-20T21:21:31.752Z,22.58
2018-09-20T21:24:02.345Z,22.62
2018-09-20T21:26:33.005Z,22.56
2018-09-20T21:29:03.669Z,22.53
2018-09-20T21:32:05.301Z,22.58
2018-09-20T21:34:35.999Z,22.56
2018-09-20T21:37:06.711Z,22.58
2018-09-20T21:39:37.406Z,22.61
2018-09-20T21:42:08.096Z,22.65
2018-09-20T21:44:38.763Z,22.67
2018-09-20T21:47:09.413Z,22.59
2018-09-20T21:49:40.021Z,22.53
2018-09-20T21:52:10.685Z,22.51
2018-09-20T21:54:41.304Z,22.54
2018-09-20T21:57:12.014Z,22.50
2018-09-20T21:59:42.640Z,22.55
2018-09-20T22:02:13.357Z,22.53
2018-09-20T22:04:44.069Z,22.49
2018-09-20T22:07:14.752Z,22.49
2018-09-20T22:09:45.377Z,22.47
2018-09-20T22:12:16.064Z,22.46
2018-09-20T22:14:46.707Z,22.45
2018-09-20T22:17:17.387Z,22.45
2018-09-20T22:19:48.052Z,22.50
2018-09-20T22:22:18.693Z,22.46
2018-09-20T22:24:49.344Z,22.45
2018-09-20T22:27:20.020Z,22.42
2018-09-20T22:29:50.823Z,22.38
2018-09-20T22:32:21.453Z,22.36
2018-09-20T22:34:52.184Z,22.39
2018-09-20T22:37:22.797Z,22.28
2018-09-20T22:39:53.412Z,22.25
2018-09-20T22:42:24.078Z,22.25
2018-09-20T22:44:54.691Z,22.28
2018-09-20T22:47:25.445Z,22.29
2018-09-20T22:49:56.127Z,22.29
2018-09-20T22:52:26.818Z,22.39
2018-09-20T22:54:57.518Z,22.33
2018-09-20T22:57:28.126Z,22.38
2018-09-20T22:59:58.795Z,22.38
2018-09-20T23:02:29.474Z,22.33
2018-09-20T23:05:00.127Z,22.33
2018-09-20T23:07:30.822Z,22.35
2018-09-20T23:10:01.404Z,22.25
2018-09-20T23:12:32.074Z,22.17
2018-09-20T23:15:02.709Z,22.17
2018-09-20T23:17:33.352Z,22.23
2018-09-20T23:20:04.026Z,22.21
2018-09-20T23:22:34.725Z,22.23
2018-09-20T23:25:05.470Z,22.16
2018-09-20T23:27:36.094Z,22.15
2018-09-20T23:30:06.908Z,22.22
2018-09-20T23:32:37.661Z,22.14
2018-09-20T23:35:08.399Z,22.26
2018-09-20T23:37:39.039Z,22.20
2018-09-20T23:40:09.632Z,22.17
2018-09-20T23:42:40.285Z,22.16
2018-09-20T23:45:10.928Z,22.15
2018-09-20T23:47:41.570Z,22.20
2018-09-20T23:50:12.269Z,22.23
2018-09-20T23:52:43.009Z,22.27
2018-09-20T23:55:13.652Z,22.16
2018-09-20T23:57:44.303Z,22.27
